Time;durP1;ratioP1;P1;durP2;ratioP2;P2;SDS_P1;SDS_P2;PMS_P1;PMS_P2;Temp;Humidity;BMP_temperature;BMP_pressure;BME280_temperature;BME280_humidity;BME280_pressure;Samples;Min_cycle;Max_cycle;Signal;HPM_P1;HPM_P2
2022/07/26 00:00:18;;;;;;;5.27;2.43;;;;;;;24.25;52.90;157604.59;5091910;28;20433;-82
2022/07/26 00:02:46;;;;;;;2.60;2.00;;;;;;;24.21;52.68;157596.75;5089993;28;20545;-82
2022/07/26 00:05:13;;;;;;;2.20;1.90;;;;;;;24.19;53.11;157591.53;5090768;28;20535;-81
2022/07/26 00:07:39;;;;;;;2.80;1.60;;;;;;;24.12;53.30;157573.19;5090077;28;20485;-81
2022/07/26 00:10:07;;;;;;;2.67;1.90;;;;;;;24.07;53.49;157560.06;5090477;28;20444;-81
2022/07/26 00:12:35;;;;;;;2.93;1.90;;;;;;;24.11;53.73;157570.59;5107300;28;20469;-81
2022/07/26 00:15:03;;;;;;;2.27;1.83;;;;;;;24.11;53.88;157569.28;5090775;28;20887;-81
2022/07/26 00:17:29;;;;;;;3.40;2.33;;;;;;;24.14;53.79;157578.47;5089302;28;20441;-81
2022/07/26 00:19:56;;;;;;;3.13;2.30;;;;;;;24.13;53.89;157575.81;5091129;28;20476;-81
2022/07/26 00:22:35;;;;;;;2.90;2.00;;;;;;;24.14;53.74;157578.47;5089567;28;20444;-81
2022/07/26 00:25:03;;;;;;;2.70;1.93;;;;;;;24.15;53.67;157579.72;5088315;28;20547;-81
2022/07/26 00:27:29;;;;;;;2.60;2.00;;;;;;;24.10;53.83;157567.97;5089529;28;20756;-81
2022/07/26 00:29:58;;;;;;;2.57;1.70;;;;;;;24.09;54.08;157565.34;5107512;28;20453;-81
2022/07/26 00:32:24;;;;;;;3.30;2.27;;;;;;;24.08;54.21;157562.75;5091387;28;20494;-81
2022/07/26 00:34:52;;;;;;;2.70;2.23;;;;;;;24.07;54.13;157560.06;5089806;28;20880;-81
2022/07/26 00:37:19;;;;;;;2.23;1.80;;;;;;;24.04;53.91;157550.94;5089735;28;20521;-81
2022/07/26 00:39:46;;;;;;;3.07;2.03;;;;;;;24.04;54.34;157552.22;5094478;28;20452;-81
2022/07/26 00:42:12;;;;;;;2.30;2.00;;;;;;;24.03;54.37;157548.31;5076407;28;20472;-81
2022/07/26 00:44:40;;;;;;;3.70;2.10;;;;;;;24.03;54.42;157549.63;5092202;28;20448;-81
2022/07/26 00:47:08;;;;;;;3.67;1.80;;;;;;;24.06;54.35;157557.47;5091985;28;20468;-81
2022/07/26 00:49:35;;;;;;;4.97;1.63;;;;;;;24.05;54.50;157554.84;5093952;28;20448;-81
2022/07/26 00:52:03;;;;;;;5.60;2.33;;;;;;;24.05;54.78;157554.84;5093525;28;20441;-81
2022/07/26 00:54:30;;;;;;;2.00;1.73;;;;;;;24.05;54.71;157554.84;5093311;28;20480;-81
2022/07/26 00:56:57;;;;;;;4.03;1.90;;;;;;;24.02;55.20;157547.00;5094351;28;20417;-81
2022/07/26 00:59:24;;;;;;;2.10;1.60;;;;;;;24.01;55.71;157544.34;5094062;28;20481;-81
2022/07/26 01:01:50;;;;;;;2.97;1.57;;;;;;;24.03;55.48;157549.63;5094111;28;20492;-81
2022/07/26 01:04:19;;;;;;;2.00;1.80;;;;;;;24.00;56.24;157541.78;5103685;28;20494;-81
2022/07/26 01:06:45;;;;;;;1.70;1.40;;;;;;;23.98;55.99;157536.56;5058185;28;20459;-81
2022/07/26 01:09:12;;;;;;;1.43;1.30;;;;;;;24.02;56.21;157545.69;5094432;28;20425;-81
2022/07/26 01:11:39;;;;;;;2.83;1.60;;;;;;;23.99;56.54;157539.13;5093184;28;20520;-81
2022/07/26 01:14:05;;;;;;;2.83;1.63;;;;;;;23.92;56.55;157520.84;5109033;28;20862;-81
2022/07/26 01:16:32;;;;;;;3.77;1.87;;;;;;;23.98;56.79;157536.56;5093549;28;20951;-81
2022/07/26 01:18:59;;;;;;;2.83;2.10;;;;;;;23.94;57.16;157524.75;5092578;28;20498;-81
2022/07/26 01:21:29;;;;;;;2.90;1.70;;;;;;;23.96;56.96;157531.28;5093128;28;20531;-81
2022/07/26 01:23:56;;;;;;;2.60;1.60;;;;;;;23.86;58.24;157503.84;5073445;28;20448;-81
2022/07/26 01:26:23;;;;;;;1.80;1.70;;;;;;;23.45;60.37;157397.97;5094184;28;20904;-81
2022/07/26 01:28:50;;;;;;;2.17;1.53;;;;;;;23.26;61.67;157349.56;5093384;28;20448;-81
2022/07/26 01:31:17;;;;;;;2.83;1.60;;;;;;;23.01;63.99;157284.19;5092788;28;20476;-85
2022/07/26 01:33:45;;;;;;;2.00;1.80;;;;;;;22.86;65.52;157246.31;5092890;28;20437;-84
2022/07/26 01:36:12;;;;;;;3.43;1.80;;;;;;;22.80;66.08;157230.63;5108828;28;20574;-85
2022/07/26 01:38:40;;;;;;;3.40;2.30;;;;;;;22.61;67.26;157179.66;5092478;28;20920;-85
2022/07/26 01:41:07;;;;;;;2.50;1.50;;;;;;;22.48;68.77;157145.69;5109579;28;20544;-84
2022/07/26 01:43:34;;;;;;;2.60;2.40;;;;;;;22.30;69.51;157099.94;5093282;28;20493;-85
2022/07/26 01:46:01;;;;;;;2.40;2.20;;;;;;;22.26;70.17;157089.53;5094384;28;20514;-85
2022/07/26 01:48:28;;;;;;;2.40;1.73;;;;;;;22.26;70.09;157090.84;5093004;28;20428;-85
2022/07/26 01:50:54;;;;;;;3.27;1.97;;;;;;;22.30;70.37;157101.25;5092532;28;20495;-85
2022/07/26 01:53:21;;;;;;;1.93;1.73;;;;;;;22.33;69.86;157109.13;5092473;28;20520;-85
2022/07/26 01:55:49;;;;;;;2.40;2.00;;;;;;;22.39;69.29;157123.47;5091876;28;20531;-84
2022/07/26 01:58:16;;;;;;;3.27;1.67;;;;;;;22.40;69.33;157126.06;5093113;28;20461;-85
2022/07/26 02:00:43;;;;;;;2.47;1.70;;;;;;;22.44;68.25;157137.84;5074520;28;20551;-85
2022/07/26 02:03:10;;;;;;;2.53;1.80;;;;;;;22.51;67.54;157154.81;5075383;28;20441;-86
2022/07/26 02:05:36;;;;;;;2.10;1.70;;;;;;;22.50;67.34;157150.91;5075331;28;20536;-86
2022/07/26 02:08:03;;;;;;;2.90;2.03;;;;;;;22.48;66.64;157146.97;5075735;28;20448;-86
2022/07/26 02:13:12;;;;;;;1.83;1.73;;;;;;;22.58;65.47;157171.81;5074896;28;20799;-86
2022/07/26 02:15:39;;;;;;;2.40;1.63;;;;;;;22.61;65.16;157180.94;5093082;28;20999;-86
2022/07/26 02:18:06;;;;;;;2.90;2.10;;;;;;;22.61;64.96;157180.94;5075170;28;20429;-86
2022/07/26 02:20:33;;;;;;;4.40;1.80;;;;;;;22.60;64.98;157178.34;5056042;28;20453;-78
2022/07/26 02:23:01;;;;;;;2.90;1.70;;;;;;;22.64;65.27;157188.81;5075319;28;20441;-78
2022/07/26 02:25:28;;;;;;;1.97;1.77;;;;;;;22.73;64.63;157212.34;5093565;28;20452;-78
2022/07/26 02:27:54;;;;;;;2.50;1.60;;;;;;;22.77;64.67;157221.53;5094095;28;20476;-78
2022/07/26 02:30:23;;;;;;;2.03;1.83;;;;;;;22.70;65.37;157203.19;5073905;28;20488;-78
2022/07/26 02:32:50;;;;;;;1.97;1.50;;;;;;;22.69;65.55;157201.88;5090919;28;20945;-78
2022/07/26 02:35:16;;;;;;;2.00;1.80;;;;;;;22.70;65.55;157203.19;5091101;28;20468;-76
2022/07/26 02:37:43;;;;;;;2.13;1.93;;;;;;;22.64;65.77;157188.81;5092707;28;20461;-78
2022/07/26 02:40:11;;;;;;;2.40;2.20;;;;;;;22.65;65.87;157191.47;5089300;28;20510;-78
2022/07/26 02:42:38;;;;;;;1.83;1.60;;;;;;;22.64;65.69;157188.81;5108636;28;20502;-78
2022/07/26 02:45:06;;;;;;;2.13;1.93;;;;;;;22.68;65.78;157199.31;5090030;28;20453;-78
2022/07/26 02:47:34;;;;;;;2.50;1.40;;;;;;;22.68;65.95;157199.31;5091416;28;20546;-78
2022/07/26 02:50:00;;;;;;;1.93;1.73;;;;;;;22.68;66.35;157197.97;5108182;28;20484;-78
2022/07/26 02:52:27;;;;;;;1.73;1.47;;;;;;;22.72;65.88;157209.72;5091584;28;20500;-78
2022/07/26 02:54:54;;;;;;;2.03;1.77;;;;;;;22.67;66.56;157196.66;5092938;28;20491;-78
2022/07/26 02:57:20;;;;;;;2.10;1.63;;;;;;;22.63;66.68;157184.94;5091858;28;20436;-78
2022/07/26 02:59:47;;;;;;;2.40;1.70;;;;;;;22.61;66.42;157180.94;5090405;28;20481;-76
2022/07/26 03:02:14;;;;;;;2.63;1.50;;;;;;;22.64;66.48;157188.81;5090500;28;20487;-78
2022/07/26 03:04:42;;;;;;;2.93;1.50;;;;;;;22.63;66.23;157186.25;5090883;28;20544;-76
2022/07/26 03:07:09;;;;;;;2.03;1.50;;;;;;;22.55;66.54;157165.28;5091769;28;20987;-76
2022/07/26 03:09:35;;;;;;;1.60;1.40;;;;;;;22.54;66.59;157162.66;5091580;28;20447;-76
2022/07/26 03:12:02;;;;;;;1.87;1.57;;;;;;;22.55;66.46;157163.97;5098620;28;20448;-76
2022/07/26 03:14:29;;;;;;;3.13;1.60;;;;;;;22.54;66.36;157162.66;5111779;28;20537;-77
2022/07/26 03:16:56;;;;;;;2.93;1.70;;;;;;;22.56;66.01;157167.88;5077646;28;21006;-77
2022/07/26 03:19:22;;;;;;;1.77;1.47;;;;;;;22.55;66.14;157163.97;5072764;28;20894;-77
2022/07/26 03:21:51;;;;;;;2.40;1.90;;;;;;;22.49;66.95;157149.59;5091512;28;20437;-77
2022/07/26 03:24:17;;;;;;;2.10;1.60;;;;;;;22.50;66.65;157150.91;5090845;28;20445;-77
2022/07/26 03:26:44;;;;;;;1.80;1.53;;;;;;;22.49;66.62;157149.59;5073178;28;20469;-77
2022/07/26 03:29:11;;;;;;;1.80;1.60;;;;;;;22.47;66.55;157144.38;5090200;28;21134;-77
2022/07/26 03:31:38;;;;;;;1.67;1.57;;;;;;;22.45;66.40;157139.16;5089973;28;20437;-77
2022/07/26 03:34:04;;;;;;;1.80;1.50;;;;;;;22.42;66.98;157131.31;5092527;28;20532;-77
2022/07/26 03:36:31;;;;;;;3.87;1.73;;;;;;;22.36;67.20;157116.97;5090678;28;20551;-77
2022/07/26 03:38:59;;;;;;;1.50;1.40;;;;;;;22.34;67.24;157110.44;5072629;28;20489;-77
2022/07/26 03:41:26;;;;;;;2.30;1.80;;;;;;;22.31;67.30;157103.91;5090146;28;20522;-77
2022/07/26 03:43:52;;;;;;;3.63;1.70;;;;;;;22.27;67.78;157092.13;5091465;28;20425;-77
2022/07/26 03:46:19;;;;;;;2.10;1.90;;;;;;;22.25;67.75;157088.22;5056093;28;20518;-77
2022/07/26 03:48:46;;;;;;;2.17;1.80;;;;;;;22.15;67.91;157060.78;5088535;28;20819;-77
2022/07/26 03:51:13;;;;;;;3.50;1.70;;;;;;;22.14;67.88;157058.16;5085027;28;20453;-77
2022/07/26 03:53:39;;;;;;;1.67;1.40;;;;;;;22.11;67.88;157051.63;5089095;28;21030;-77
2022/07/26 03:58:52;;;;;;;4.70;1.70;;;;;;;22.12;68.09;157052.94;5090290;28;20971;-77
2022/07/26 04:01:19;;;;;;;2.10;1.80;;;;;;;22.03;68.42;157030.72;5072920;28;20533;-77
2022/07/26 04:03:45;;;;;;;2.00;1.80;;;;;;;21.99;68.61;157020.31;5056352;28;20433;-76
2022/07/26 04:06:12;;;;;;;2.87;2.40;;;;;;;21.98;68.84;157016.38;5072729;28;20804;-77
2022/07/26 04:08:39;;;;;;;1.93;1.73;;;;;;;21.90;68.83;156996.78;5081946;28;20446;-77
2022/07/26 04:11:06;;;;;;;1.90;1.70;;;;;;;21.84;69.13;156982.38;5071693;28;20861;-77
2022/07/26 04:13:34;;;;;;;2.07;1.77;;;;;;;21.77;69.41;156964.09;5080366;28;20456;-77
2022/07/26 04:16:01;;;;;;;1.70;1.50;;;;;;;21.72;69.62;156951.06;5091231;28;20535;-77
2022/07/26 04:18:27;;;;;;;2.27;2.07;;;;;;;21.71;69.56;156947.16;5089387;28;20436;-77
2022/07/26 04:20:54;;;;;;;4.40;1.73;;;;;;;21.71;69.65;156947.16;5089896;28;20495;-77
2022/07/26 04:23:21;;;;;;;2.50;2.00;;;;;;;21.72;69.85;156949.75;5090577;28;20437;-77
2022/07/26 04:25:48;;;;;;;2.30;1.80;;;;;;;21.73;69.65;156953.69;5071071;28;20457;-77
2022/07/26 04:28:15;;;;;;;2.30;2.00;;;;;;;21.72;69.41;156951.06;5089974;28;20468;-77
2022/07/26 04:30:43;;;;;;;2.67;1.93;;;;;;;21.69;69.61;156943.22;5085590;28;20520;-76
2022/07/26 04:33:10;;;;;;;2.03;1.83;;;;;;;21.72;69.42;156951.06;5072020;28;20457;-77
2022/07/26 04:35:36;;;;;;;2.00;1.50;;;;;;;21.72;69.35;156949.75;5090827;28;20453;-77
2022/07/26 04:38:18;;;;;;;2.00;1.80;;;;;;;21.71;69.74;156947.16;5062070;28;20539;-76
2022/07/26 04:40:45;;;;;;;2.50;2.30;;;;;;;21.64;69.85;156930.16;5072390;28;20452;-77
2022/07/26 04:43:12;;;;;;;2.57;2.37;;;;;;;21.72;69.40;156949.75;5084953;28;20453;-77
2022/07/26 04:45:38;;;;;;;1.97;1.77;;;;;;;21.71;69.99;156947.16;5074099;28;20476;-76
2022/07/26 04:48:07;;;;;;;2.00;1.80;;;;;;;21.62;69.83;156924.97;5091154;28;20464;-77
2022/07/26 04:50:34;;;;;;;2.50;1.83;;;;;;;21.58;70.46;156914.47;5073300;28;20462;-77
2022/07/26 04:53:04;;;;;;;3.07;2.50;;;;;;;21.62;69.93;156924.97;5071365;28;20464;-77
2022/07/26 04:55:31;;;;;;;2.60;2.40;;;;;;;21.64;69.92;156930.16;5072425;28;20514;-77
2022/07/26 04:57:58;;;;;;;3.33;2.20;;;;;;;21.66;70.00;156935.38;5088987;28;20506;-77
2022/07/26 05:00:25;;;;;;;2.27;2.00;;;;;;;21.76;69.80;156961.47;5070885;28;20461;-77
2022/07/26 05:02:53;;;;;;;3.20;2.47;;;;;;;21.81;69.57;156974.56;5071496;28;20455;-77
2022/07/26 05:05:22;;;;;;;2.23;2.00;;;;;;;21.86;69.18;156986.38;5072756;28;20484;-74
2022/07/26 05:07:50;;;;;;;3.30;1.93;;;;;;;21.87;69.20;156987.69;5072324;28;20477;-75
2022/07/26 05:10:17;;;;;;;2.60;2.10;;;;;;;21.92;69.05;157002.03;5090509;28;20488;-78
2022/07/26 05:12:45;;;;;;;4.53;2.70;;;;;;;21.94;69.07;157007.25;5089314;28;20514;-78
2022/07/26 05:15:12;;;;;;;4.10;2.43;;;;;;;21.89;69.23;156992.88;5090791;28;20790;-78
2022/07/26 05:17:39;;;;;;;2.50;2.30;;;;;;;21.84;69.34;156982.38;5091539;28;20494;-83
2022/07/26 05:20:07;;;;;;;4.57;2.93;;;;;;;21.89;69.41;156994.19;5087662;28;20453;-86
2022/07/26 05:22:35;;;;;;;2.83;2.63;;;;;;;21.89;69.26;156992.88;5093139;28;20445;-84
2022/07/26 05:25:02;;;;;;;2.23;2.03;;;;;;;21.94;69.65;157007.25;5109041;28;20449;-86
2022/07/26 05:27:28;;;;;;;2.83;2.63;;;;;;;22.13;69.39;157055.56;5076739;28;20502;-86
2022/07/26 05:29:55;;;;;;;3.60;2.60;;;;;;;22.24;68.93;157084.31;5096261;28;20543;-85
2022/07/26 05:32:22;;;;;;;2.80;2.60;;;;;;;22.31;68.24;157102.59;5102141;28;20471;-86
2022/07/26 05:34:49;;;;;;;2.90;2.70;;;;;;;22.47;67.64;157144.38;5093070;28;20440;-85
2022/07/26 05:37:15;;;;;;;5.50;2.90;;;;;;;22.48;67.45;157146.97;5079983;28;20448;-85
2022/07/26 05:40:21;;;;;;;7.37;3.27;;;;;;;22.50;67.41;157150.91;5093477;28;21190;-85
2022/07/26 05:42:49;;;;;;;3.50;2.90;;;;;;;22.65;67.04;157191.47;5085146;28;20443;-85
2022/07/26 05:45:16;;;;;;;3.63;3.33;;;;;;;22.82;66.72;157235.84;5099522;28;20455;-85
2022/07/26 05:47:43;;;;;;;3.03;2.73;;;;;;;23.17;65.88;157324.69;5094238;28;20578;-85
2022/07/26 05:50:10;;;;;;;3.23;2.93;;;;;;;23.39;64.99;157382.28;5075081;28;20539;-84
2022/07/26 05:52:37;;;;;;;4.13;3.07;;;;;;;23.41;64.14;157387.50;5102786;28;20522;-85
2022/07/26 05:55:04;;;;;;;3.20;2.90;;;;;;;23.23;64.51;157341.72;5090048;28;20498;-85
2022/07/26 05:57:31;;;;;;;3.17;2.90;;;;;;;23.19;64.52;157329.97;5075228;28;20433;-84
2022/07/26 05:59:59;;;;;;;4.00;3.70;;;;;;;22.98;65.22;157276.41;5093472;28;20469;-86
2022/07/26 06:02:29;;;;;;;3.83;3.03;;;;;;;23.10;65.48;157306.41;5092230;28;20449;-86
2022/07/26 06:05:01;;;;;;;4.70;3.40;;;;;;;23.46;64.27;157400.56;5081906;28;21026;-85
2022/07/26 06:07:28;;;;;;;3.73;3.33;;;;;;;23.81;63.36;157490.75;5090345;28;20761;-85
2022/07/26 06:09:58;;;;;;;3.07;2.87;;;;;;;24.16;62.27;157583.69;5110335;28;20448;-85
2022/07/26 06:12:25;;;;;;;3.57;3.27;;;;;;;24.50;60.95;157669.97;5110894;28;20467;-85
2022/07/26 06:14:52;;;;;;;3.17;2.97;;;;;;;24.72;60.24;157728.88;5092769;28;20463;-85
2022/07/26 06:17:20;;;;;;;3.50;2.60;;;;;;;25.00;59.15;157800.84;5091112;28;20414;-85
2022/07/26 06:19:47;;;;;;;3.57;3.27;;;;;;;25.41;58.43;157906.84;5109097;27;20578;-85
2022/07/26 06:22:14;;;;;;;3.47;3.00;;;;;;;25.67;56.32;157973.66;5082359;28;20436;-85
2022/07/26 06:24:41;;;;;;;3.17;2.87;;;;;;;25.87;55.31;158026.00;5091672;28;20594;-86
2022/07/26 06:27:08;;;;;;;2.90;2.70;;;;;;;26.26;54.21;158128.22;5095693;28;20449;-77
2022/07/26 06:29:53;;;;;;;2.87;2.50;;;;;;;26.34;52.72;158147.84;5079103;28;20486;-77
2022/07/26 06:32:21;;;;;;;3.70;2.60;;;;;;;26.18;52.52;158107.25;5096232;28;20440;-77
2022/07/26 06:34:48;;;;;;;3.00;2.50;;;;;;;26.04;49.90;158070.53;5089735;28;20441;-77
2022/07/26 06:37:15;;;;;;;5.43;2.23;;;;;;;25.75;51.45;157995.91;5090006;28;20514;-77
2022/07/26 06:39:41;;;;;;;2.43;2.20;;;;;;;25.79;50.00;158005.03;5088709;28;20437;-77
2022/07/26 06:42:08;;;;;;;3.00;2.30;;;;;;;26.12;49.70;158090.16;5071863;28;20500;-77
2022/07/26 06:44:36;;;;;;;3.97;2.50;;;;;;;26.33;48.11;158146.53;5088662;28;20465;-77
2022/07/26 06:47:03;;;;;;;2.70;2.03;;;;;;;26.39;46.31;158162.25;5073897;28;20456;-77
2022/07/26 06:49:31;;;;;;;2.80;1.90;;;;;;;26.39;46.92;158160.94;5092387;28;20477;-77
2022/07/26 06:51:58;;;;;;;2.43;2.00;;;;;;;26.60;46.98;158217.25;5073713;28;20503;-77
2022/07/26 06:54:24;;;;;;;2.90;2.00;;;;;;;26.74;45.67;158252.59;5068976;28;20656;-77
2022/07/26 06:56:51;;;;;;;3.37;1.90;;;;;;;26.97;45.78;158311.63;5090151;28;20445;-76
2022/07/26 06:59:18;;;;;;;4.97;1.87;;;;;;;26.98;45.72;158314.25;5056625;28;20469;-78
2022/07/26 07:01:45;;;;;;;4.60;1.70;;;;;;;27.12;44.73;158350.91;5089031;28;20447;-77
2022/07/26 07:04:12;;;;;;;4.27;1.90;;;;;;;26.96;44.47;158308.97;5088325;28;20461;-77
2022/07/26 07:06:40;;;;;;;2.67;1.90;;;;;;;26.90;43.84;158294.56;5082618;28;20540;-77
2022/07/26 07:09:07;;;;;;;2.30;1.67;;;;;;;26.82;43.92;158272.31;5093041;28;20477;-77
2022/07/26 07:11:34;;;;;;;3.93;1.73;;;;;;;27.13;43.25;158353.53;5091492;28;20972;-77
2022/07/26 07:14:02;;;;;;;1.70;1.60;;;;;;;27.16;43.45;158362.69;5091668;28;20484;-77
2022/07/26 07:16:29;;;;;;;2.57;1.90;;;;;;;27.39;42.64;158421.69;5089241;28;20476;-77
2022/07/26 07:18:57;;;;;;;2.30;1.33;;;;;;;27.41;41.91;158426.94;5089847;28;20452;-77
2022/07/26 07:21:24;;;;;;;3.70;1.87;;;;;;;27.29;41.94;158395.47;5089972;28;20489;-77
2022/07/26 07:23:52;;;;;;;4.67;1.70;;;;;;;27.52;42.38;158455.78;5089402;28;20491;-77
2022/07/26 07:26:26;;;;;;;3.00;1.60;;;;;;;27.97;41.67;158571.13;5090393;28;20528;-77
2022/07/26 07:28:53;;;;;;;4.80;1.90;;;;;;;28.49;40.79;158707.53;5091244;28;20994;-77
2022/07/26 07:31:20;;;;;;;1.97;1.70;;;;;;;28.71;39.73;158765.28;5104019;28;20450;-78
2022/07/26 07:33:47;;;;;;;2.63;1.80;;;;;;;28.88;39.02;158808.59;5089862;28;20841;-76
2022/07/26 07:36:16;;;;;;;1.90;1.40;;;;;;;29.20;38.60;158891.22;5088408;28;20449;-78
2022/07/26 07:38:44;;;;;;;2.50;1.50;;;;;;;29.42;38.15;158950.28;5091288;28;20425;-75
2022/07/26 07:41:12;;;;;;;2.03;1.50;;;;;;;29.43;37.71;158952.94;5089764;28;20445;-75
2022/07/26 07:43:39;;;;;;;2.80;1.43;;;;;;;29.61;38.14;158998.84;5060659;28;20493;-75
2022/07/26 07:46:06;;;;;;;1.50;1.40;;;;;;;29.65;37.24;159008.03;5053022;28;20430;-76
2022/07/26 07:48:33;;;;;;;3.40;1.57;;;;;;;29.67;37.53;159014.59;5065706;28;21052;-78
2022/07/26 07:50:59;;;;;;;1.73;1.37;;;;;;;29.83;36.84;159055.34;5090487;28;20421;-76
2022/07/26 07:53:26;;;;;;;1.67;1.50;;;;;;;30.11;36.84;159130.13;5090413;28;20453;-76
2022/07/26 07:55:53;;;;;;;3.63;1.60;;;;;;;29.70;37.52;159022.47;5091746;28;20467;-76
2022/07/26 07:58:21;;;;;;;2.10;1.90;;;;;;;29.51;37.92;158972.59;5088884;28;20516;-76
2022/07/26 08:00:48;;;;;;;6.50;1.37;;;;;;;29.19;37.49;158888.59;5075836;28;20832;-76
2022/07/26 08:03:15;;;;;;;2.00;1.40;;;;;;;29.61;37.73;158997.53;5093107;28;20459;-77
2022/07/26 08:05:42;;;;;;;3.13;1.60;;;;;;;29.64;36.79;159005.41;5087679;28;20869;-77
2022/07/26 08:08:09;;;;;;;3.77;1.80;;;;;;;29.65;36.94;159009.38;5079286;28;20479;-77
2022/07/26 08:10:35;;;;;;;2.50;1.47;;;;;;;29.69;36.44;159019.84;5077546;28;20479;-77
2022/07/26 08:13:02;;;;;;;4.60;1.87;;;;;;;29.28;36.92;158912.28;5105503;28;20967;-77
2022/07/26 08:15:30;;;;;;;1.80;1.47;;;;;;;29.35;37.22;158930.63;5091626;28;20516;-77
2022/07/26 08:17:57;;;;;;;1.80;1.50;;;;;;;29.52;36.67;158975.25;5088306;28;21119;-77
2022/07/26 08:20:24;;;;;;;2.00;1.80;;;;;;;29.37;35.87;158937.19;5089482;28;20481;-77
2022/07/26 08:22:50;;;;;;;1.83;1.40;;;;;;;29.43;36.19;158951.63;5089363;28;20452;-77
2022/07/26 08:25:17;;;;;;;2.70;1.40;;;;;;;29.75;35.95;159035.59;5067522;28;20943;-77
2022/07/26 08:27:44;;;;;;;2.57;1.30;;;;;;;30.11;35.42;159130.13;5083302;28;20456;-77
2022/07/26 08:30:12;;;;;;;1.70;1.40;;;;;;;30.03;34.65;159109.13;5089114;28;20483;-77
2022/07/26 08:32:40;;;;;;;5.03;1.60;;;;;;;30.46;35.66;159220.78;5086976;28;20460;-83
2022/07/26 08:35:07;;;;;;;1.83;1.60;;;;;;;30.57;34.05;159248.34;5086801;28;20475;-82
2022/07/26 08:37:34;;;;;;;3.20;1.30;;;;;;;30.16;34.54;159143.25;5072855;28;20468;-82
2022/07/26 08:40:01;;;;;;;1.43;1.33;;;;;;;30.22;34.78;159156.38;5089096;28;20449;-82
2022/07/26 08:42:28;;;;;;;1.70;1.30;;;;;;;30.37;34.50;159195.84;5071265;28;20537;-82
2022/07/26 08:44:54;;;;;;;2.23;1.60;;;;;;;29.94;35.15;159085.53;5090948;28;20564;-82
2022/07/26 08:47:22;;;;;;;1.50;1.37;;;;;;;30.25;34.87;159165.59;5077428;28;20852;-82
2022/07/26 08:49:50;;;;;;;3.93;1.80;;;;;;;30.01;34.80;159103.91;5089270;28;20473;-82
2022/07/26 08:52:17;;;;;;;1.87;1.10;;;;;;;29.70;35.37;159022.47;5089884;28;20452;-81
2022/07/26 08:54:45;;;;;;;2.50;1.60;;;;;;;29.75;35.28;159035.59;5091033;28;20842;-82
2022/07/26 08:57:12;;;;;;;1.70;1.30;;;;;;;29.60;35.22;158996.19;5087783;28;20804;-82
2022/07/26 08:59:39;;;;;;;2.57;1.43;;;;;;;29.87;35.20;159067.13;5087278;28;20477;-82
2022/07/26 09:02:08;;;;;;;3.30;1.50;;;;;;;29.59;35.20;158993.59;5082220;28;20432;-81
2022/07/26 09:04:36;;;;;;;2.27;1.37;;;;;;;29.33;35.50;158925.38;5092801;28;20457;-82
2022/07/26 09:07:07;;;;;;;3.20;1.60;;;;;;;29.34;35.25;158927.97;5078451;28;20456;-82
2022/07/26 09:09:34;;;;;;;1.50;1.20;;;;;;;29.44;35.07;158955.53;5105618;28;20536;-82
2022/07/26 09:12:14;;;;;;;2.63;1.60;;;;;;;29.75;35.27;159035.59;5096406;28;20437;-82
2022/07/26 09:14:41;;;;;;;4.23;1.30;;;;;;;29.89;34.52;159072.38;5075145;28;20506;-82
2022/07/26 09:17:08;;;;;;;2.40;1.53;;;;;;;30.09;34.24;159124.91;5073261;28;20476;-82
2022/07/26 09:19:35;;;;;;;2.10;1.30;;;;;;;30.22;33.91;159157.69;5094168;28;20453;-82
2022/07/26 09:22:11;;;;;;;1.60;1.30;;;;;;;30.25;33.44;159165.59;5076244;28;20476;-82
2022/07/26 09:24:40;;;;;;;2.37;1.23;;;;;;;30.12;34.38;159131.47;5084706;28;20452;-82
2022/07/26 09:27:09;;;;;;;3.40;1.20;;;;;;;30.40;34.37;159205.00;5092761;28;20433;-82
2022/07/26 09:29:43;;;;;;;2.30;1.30;;;;;;;30.67;33.37;159275.91;5090879;28;20479;-82
2022/07/26 09:32:18;;;;;;;1.60;1.40;;;;;;;30.69;33.38;159279.84;5061812;28;20457;-82
2022/07/26 09:34:46;;;;;;;2.00;1.17;;;;;;;30.80;33.08;159308.72;5086908;28;20469;-82
2022/07/26 09:37:15;;;;;;;2.33;1.50;;;;;;;30.92;32.71;159340.31;5090473;28;20461;-82
2022/07/26 09:39:59;;;;;;;2.53;1.40;;;;;;;30.99;32.10;159357.38;5098826;28;20543;-82
2022/07/26 09:42:28;;;;;;;1.70;1.60;;;;;;;30.96;32.95;159350.81;5085043;28;21044;-82
2022/07/26 09:44:55;;;;;;;3.20;1.60;;;;;;;30.94;32.72;159345.56;5093711;28;20495;-83
2022/07/26 09:47:22;;;;;;;1.63;1.53;;;;;;;30.93;31.97;159341.59;5082509;28;20433;-82
2022/07/26 09:49:49;;;;;;;1.70;1.27;;;;;;;30.58;32.37;159252.25;5092503;28;21005;-82
2022/07/26 09:52:20;;;;;;;1.97;1.63;;;;;;;30.47;33.01;159223.41;5088993;28;20506;-82
2022/07/26 09:54:51;;;;;;;1.70;1.10;;;;;;;30.32;33.39;159182.63;5088594;28;20506;-82
2022/07/26 09:57:19;;;;;;;1.97;1.50;;;;;;;30.56;33.52;159245.69;5066376;28;20453;-82
2022/07/26 09:59:46;;;;;;;1.50;1.40;;;;;;;30.55;33.85;159243.09;5085212;28;20686;-82
2022/07/26 10:02:14;;;;;;;1.90;1.40;;;;;;;30.47;33.30;159223.41;5078567;28;20453;-82
2022/07/26 10:04:41;;;;;;;2.80;1.50;;;;;;;30.35;32.89;159191.84;5074543;28;20803;-82
2022/07/26 10:07:08;;;;;;;3.00;1.53;;;;;;;29.93;33.36;159082.91;5089284;28;20530;-82
2022/07/26 10:09:43;;;;;;;2.00;1.60;;;;;;;29.87;33.87;159067.13;5085782;28;20512;-82
2022/07/26 10:12:14;;;;;;;1.40;1.13;;;;;;;29.86;33.79;159063.22;5064372;28;20949;-82
2022/07/26 10:14:43;;;;;;;1.33;1.13;;;;;;;29.61;33.99;158998.84;5090453;28;20476;-82
2022/07/26 10:17:39;;;;;;;2.30;1.57;;;;;;;29.28;34.94;158912.28;5066844;28;20431;-82
2022/07/26 10:20:07;;;;;;;2.60;1.10;;;;;;;29.01;35.84;158842.69;5087346;28;20441;-82
2022/07/26 10:22:41;;;;;;;2.83;1.40;;;;;;;28.72;36.45;158767.94;5098344;28;20448;-82
2022/07/26 10:25:47;;;;;;;1.20;1.10;;;;;;;28.66;36.44;158750.84;5091608;28;20445;-82
2022/07/26 10:28:25;;;;;;;1.80;1.50;;;;;;;28.19;37.21;158628.88;5086679;28;20479;-82
2022/07/26 10:30:53;;;;;;;1.70;1.60;;;;;;;28.22;38.37;158636.75;5092567;28;20464;-82
2022/07/26 10:33:23;;;;;;;1.20;1.00;;;;;;;28.27;37.78;158651.19;5093154;28;20779;-82
2022/07/26 10:35:50;;;;;;;2.37;1.20;;;;;;;27.94;38.10;158563.25;5093123;28;20513;-82
2022/07/26 10:38:23;;;;;;;1.47;1.30;;;;;;;27.98;38.33;158573.75;5092113;28;20487;-82
2022/07/26 10:40:58;;;;;;;4.23;1.40;;;;;;;28.67;37.09;158754.81;5092962;28;20414;-82
2022/07/26 10:43:25;;;;;;;2.80;1.33;;;;;;;28.90;35.77;158815.13;5087510;28;20530;-82
2022/07/26 10:46:23;;;;;;;2.50;1.20;;;;;;;28.80;36.44;158788.91;5077380;28;20456;-82
2022/07/26 10:48:57;;;;;;;2.23;1.50;;;;;;;28.89;35.86;158811.19;5055387;28;20474;-82
2022/07/26 10:51:25;;;;;;;2.17;1.50;;;;;;;28.66;36.52;158750.84;5062942;28;20491;-77
2022/07/26 10:53:59;;;;;;;1.10;1.00;;;;;;;28.67;36.31;158753.50;5100599;28;20915;-77
2022/07/26 10:56:28;;;;;;;1.23;1.13;;;;;;;28.69;36.78;158760.06;5094338;28;20468;-77
2022/07/26 10:58:55;;;;;;;1.40;1.10;;;;;;;28.77;36.53;158781.03;5092832;28;20607;-77
2022/07/26 11:01:22;;;;;;;2.40;1.30;;;;;;;28.56;37.01;158725.91;5100439;28;20524;-77
2022/07/26 11:03:49;;;;;;;3.23;1.20;;;;;;;28.14;37.75;158617.09;5084690;28;20453;-77
2022/07/26 11:06:17;;;;;;;2.37;1.30;;;;;;;28.30;37.13;158659.00;5097434;28;20448;-77
2022/07/26 11:08:45;;;;;;;1.27;1.17;;;;;;;28.56;36.05;158724.59;5106177;28;20527;-77
2022/07/26 11:11:12;;;;;;;1.60;1.17;;;;;;;28.46;36.03;158699.69;5107124;28;20796;-77
2022/07/26 11:13:41;;;;;;;1.40;1.10;;;;;;;28.49;36.64;158706.25;5085557;28;20481;-77
2022/07/26 11:16:09;;;;;;;1.60;1.27;;;;;;;28.28;37.24;158653.75;5101546;28;20841;-77
2022/07/26 11:18:37;;;;;;;1.80;1.13;;;;;;;28.24;37.26;158641.97;5092253;28;20498;-77
2022/07/26 11:21:14;;;;;;;1.40;1.00;;;;;;;27.55;38.36;158463.66;5090753;28;20542;-77
2022/07/26 11:23:43;;;;;;;1.60;1.40;;;;;;;27.55;38.29;158463.66;5090630;28;20453;-77
2022/07/26 11:26:15;;;;;;;1.10;1.00;;;;;;;27.51;38.50;158451.88;5092586;28;20433;-77
2022/07/26 11:28:57;;;;;;;1.50;1.20;;;;;;;27.29;38.90;158395.47;5090945;28;20445;-77
2022/07/26 11:31:27;;;;;;;1.83;1.37;;;;;;;27.59;39.54;158474.13;5091284;28;20892;-76
2022/07/26 11:33:54;;;;;;;2.20;1.40;;;;;;;27.66;37.86;158491.19;5091299;28;20441;-76